Aviation Digital Data Service (ADDS)

Output produced by METARs form (1154 UTC 22 March 2019)
found at http://www.aviationweather.gov/metar/data/
 
METAR text: ROIG 221100Z 03018KT 9999 SCT013 BKN021 21/19 Q1013
Conditions at: ROIG (ISHIGAKIJIMA ISL, JP) observed 1100 UTC 22 March 2019
Temperature: 21.0°C (70°F)
Dewpoint: 19.0°C (66°F) [RH = 88%]
Pressure (altimeter): 29.91 inches Hg (1013.0 mb)
Winds: from the NNE (30 degrees) at 21 MPH (18 knots; 9.3 m/s)
Visibility: 6 or more miles (10+ km)
Ceiling: 2100 feet AGL
Clouds: scattered clouds at 1300 feet AGL
broken clouds at 2100 feet AGL
Weather: no significant weather observed at this time

METAR text: ROIG 221000Z 03018KT 9999 -SHRA BKN012 BKN020 21/20 Q1013
Conditions at: ROIG (ISHIGAKIJIMA ISL, JP) observed 1000 UTC 22 March 2019
Temperature: 21.0°C (70°F)
Dewpoint: 20.0°C (68°F) [RH = 94%]
Pressure (altimeter): 29.91 inches Hg (1013.0 mb)
Winds: from the NNE (30 degrees) at 21 MPH (18 knots; 9.3 m/s)
Visibility: 6 or more miles (10+ km)
Ceiling: 1200 feet AGL
Clouds: broken clouds at 1200 feet AGL
broken clouds at 2000 feet AGL
Weather: -SHRA  (light rain showers)

METAR text: ROIG 220900Z 02017KT 9999 -SHRA BKN012 22/20 Q1013
Conditions at: ROIG (ISHIGAKIJIMA ISL, JP) observed 0900 UTC 22 March 2019
Temperature: 22.0°C (72°F)
Dewpoint: 20.0°C (68°F) [RH = 88%]
Pressure (altimeter): 29.91 inches Hg (1013.0 mb)
Winds: from the NNE (20 degrees) at 20 MPH (17 knots; 8.7 m/s)
Visibility: 6 or more miles (10+ km)
Ceiling: 1200 feet AGL
Clouds: broken clouds at 1200 feet AGL
Weather: -SHRA  (light rain showers)

METAR text: ROIG 220800Z 03018KT 9999 SCT013 BKN020 BKN070 23/21 Q1012
Conditions at: ROIG (ISHIGAKIJIMA ISL, JP) observed 0800 UTC 22 March 2019
Temperature: 23.0°C (73°F)
Dewpoint: 21.0°C (70°F) [RH = 89%]
Pressure (altimeter): 29.88 inches Hg (1012.0 mb)
Winds: from the NNE (30 degrees) at 21 MPH (18 knots; 9.3 m/s)
Visibility: 6 or more miles (10+ km)
Ceiling: 2000 feet AGL
Clouds: scattered clouds at 1300 feet AGL
broken clouds at 2000 feet AGL
broken clouds at 7000 feet AGL
Weather: no significant weather observed at this time

METAR text: ROIG 220700Z 03018KT 9999 SCT013 SCT027 24/20 Q1012
Conditions at: ROIG (ISHIGAKIJIMA ISL, JP) observed 0700 UTC 22 March 2019
Temperature: 24.0°C (75°F)
Dewpoint: 20.0°C (68°F) [RH = 78%]
Pressure (altimeter): 29.88 inches Hg (1012.0 mb)
Winds: from the NNE (30 degrees) at 21 MPH (18 knots; 9.3 m/s)
Visibility: 6 or more miles (10+ km)
Ceiling: at least 12,000 feet AGL
Clouds: scattered clouds at 1300 feet AGL
scattered clouds at 2700 feet AGL
Weather: no significant weather observed at this time

METAR text: ROIG 220600Z 03016KT 9999 FEW013 SCT022 BKN050 25/21 Q1013
Conditions at: ROIG (ISHIGAKIJIMA ISL, JP) observed 0600 UTC 22 March 2019
Temperature: 25.0°C (77°F)
Dewpoint: 21.0°C (70°F) [RH = 79%]
Pressure (altimeter): 29.91 inches Hg (1013.0 mb)
Winds: from the NNE (30 degrees) at 18 MPH (16 knots; 8.2 m/s)
Visibility: 6 or more miles (10+ km)
Ceiling: 5000 feet AGL
Clouds: few clouds at 1300 feet AGL
scattered clouds at 2200 feet AGL
broken clouds at 5000 feet AGL
Weather: no significant weather observed at this time

METAR text: ROIG 220500Z 03016KT 9999 FEW025 SCT035 BKN060 25/20 Q1013
Conditions at: ROIG (ISHIGAKIJIMA ISL, JP) observed 0500 UTC 22 March 2019
Temperature: 25.0°C (77°F)
Dewpoint: 20.0°C (68°F) [RH = 74%]
Pressure (altimeter): 29.91 inches Hg (1013.0 mb)
Winds: from the NNE (30 degrees) at 18 MPH (16 knots; 8.2 m/s)
Visibility: 6 or more miles (10+ km)
Ceiling: 6000 feet AGL
Clouds: few clouds at 2500 feet AGL
scattered clouds at 3500 feet AGL
broken clouds at 6000 feet AGL
Weather: no significant weather observed at this time

METAR text: ROIG 220400Z 04015KT 9999 -SHRA SCT025 BKN035 26/21 Q1013
Conditions at: ROIG (ISHIGAKIJIMA ISL, JP) observed 0400 UTC 22 March 2019
Temperature: 26.0°C (79°F)
Dewpoint: 21.0°C (70°F) [RH = 74%]
Pressure (altimeter): 29.91 inches Hg (1013.0 mb)
Winds: from the NE (40 degrees) at 17 MPH (15 knots; 7.7 m/s)
Visibility: 6 or more miles (10+ km)
Ceiling: 3500 feet AGL
Clouds: scattered clouds at 2500 feet AGL
broken clouds at 3500 feet AGL
Weather: -SHRA  (light rain showers)

METAR text: ROIG 220300Z 03017KT 9999 SCT015 BKN022 24/20 Q1014
Conditions at: ROIG (ISHIGAKIJIMA ISL, JP) observed 0300 UTC 22 March 2019
Temperature: 24.0°C (75°F)
Dewpoint: 20.0°C (68°F) [RH = 78%]
Pressure (altimeter): 29.94 inches Hg (1014.0 mb)
Winds: from the NNE (30 degrees) at 20 MPH (17 knots; 8.7 m/s)
Visibility: 6 or more miles (10+ km)
Ceiling: 2200 feet AGL
Clouds: scattered clouds at 1500 feet AGL
broken clouds at 2200 feet AGL
Weather: no significant weather observed at this time

METAR text: ROIG 220200Z 03018KT 9999 FEW011 BKN015 24/21 Q1014
Conditions at: ROIG (ISHIGAKIJIMA ISL, JP) observed 0200 UTC 22 March 2019
Temperature: 24.0°C (75°F)
Dewpoint: 21.0°C (70°F) [RH = 83%]
Pressure (altimeter): 29.94 inches Hg (1014.0 mb)
Winds: from the NNE (30 degrees) at 21 MPH (18 knots; 9.3 m/s)
Visibility: 6 or more miles (10+ km)
Ceiling: 1500 feet AGL
Clouds: few clouds at 1100 feet AGL
broken clouds at 1500 feet AGL
Weather: no significant weather observed at this time

METAR text: ROIG 220100Z 03014KT 9999 FEW010 BKN022 24/22 Q1014
Conditions at: ROIG (ISHIGAKIJIMA ISL, JP) observed 0100 UTC 22 March 2019
Temperature: 24.0°C (75°F)
Dewpoint: 22.0°C (72°F) [RH = 89%]
Pressure (altimeter): 29.94 inches Hg (1014.0 mb)
Winds: from the NNE (30 degrees) at 16 MPH (14 knots; 7.2 m/s)
Visibility: 6 or more miles (10+ km)
Ceiling: 2200 feet AGL
Clouds: few clouds at 1000 feet AGL
broken clouds at 2200 feet AGL
Weather: no significant weather observed at this time

METAR text: ROIG 220000Z 04016KT 9999 FEW009 SCT015 24/22 Q1014
Conditions at: ROIG (ISHIGAKIJIMA ISL, JP) observed 0000 UTC 22 March 2019
Temperature: 24.0°C (75°F)
Dewpoint: 22.0°C (72°F) [RH = 89%]
Pressure (altimeter): 29.94 inches Hg (1014.0 mb)
Winds: from the NE (40 degrees) at 18 MPH (16 knots; 8.2 m/s)
Visibility: 6 or more miles (10+ km)
Ceiling: at least 12,000 feet AGL
Clouds: few clouds at 900 feet AGL
scattered clouds at 1500 feet AGL
Weather: no significant weather observed at this time

METAR text: ROIG 212300Z 02012KT 9999 -SHRA FEW009 BKN016 23/22 Q1013
Conditions at: ROIG (ISHIGAKIJIMA ISL, JP) observed 2300 UTC 21 March 2019
Temperature: 23.0°C (73°F)
Dewpoint: 22.0°C (72°F) [RH = 94%]
Pressure (altimeter): 29.91 inches Hg (1013.0 mb)
Winds: from the NNE (20 degrees) at 14 MPH (12 knots; 6.2 m/s)
Visibility: 6 or more miles (10+ km)
Ceiling: 1600 feet AGL
Clouds: few clouds at 900 feet AGL
broken clouds at 1600 feet AGL
Weather: -SHRA  (light rain showers)

METAR text: ROIG 212200Z 00000KT 9999 FEW015 22/22 Q1012
Conditions at: ROIG (ISHIGAKIJIMA ISL, JP) observed 2200 UTC 21 March 2019
Temperature: 22.0°C (72°F)
Dewpoint: 22.0°C (72°F) [RH = 100%]
Pressure (altimeter): 29.88 inches Hg (1012.0 mb)
Winds: calm
Visibility: 6 or more miles (10+ km)
Ceiling: at least 12,000 feet AGL
Clouds: few clouds at 1500 feet AGL
Weather: no significant weather observed at this time

METAR text: ROIG 212100Z VRB02KT 9999 FEW010 22/22 Q1012
Conditions at: ROIG (ISHIGAKIJIMA ISL, JP) observed 2100 UTC 21 March 2019
Temperature: 22.0°C (72°F)
Dewpoint: 22.0°C (72°F) [RH = 100%]
Pressure (altimeter): 29.88 inches Hg (1012.0 mb)
Winds: variable direction winds at 2 MPH (2 knots; 1.0 m/s)
Visibility: 6 or more miles (10+ km)
Ceiling: at least 12,000 feet AGL
Clouds: few clouds at 1000 feet AGL
Weather: no significant weather observed at this time

METAR text: ROIG 211100Z 21009KT 9999 FEW015 BKN028 25/23 Q1010
Conditions at: ROIG (ISHIGAKIJIMA ISL, JP) observed 1100 UTC 21 March 2019
Temperature: 25.0°C (77°F)
Dewpoint: 23.0°C (73°F) [RH = 89%]
Pressure (altimeter): 29.82 inches Hg (1010.0 mb)
Winds: from the SSW (210 degrees) at 10 MPH (9 knots; 4.6 m/s)
Visibility: 6 or more miles (10+ km)
Ceiling: 2800 feet AGL
Clouds: few clouds at 1500 feet AGL
broken clouds at 2800 feet AGL
Weather: no significant weather observed at this time

METAR text: ROIG 211000Z 21009KT 9999 FEW015 SCT028 25/23 Q1010
Conditions at: ROIG (ISHIGAKIJIMA ISL, JP) observed 1000 UTC 21 March 2019
Temperature: 25.0°C (77°F)
Dewpoint: 23.0°C (73°F) [RH = 89%]
Pressure (altimeter): 29.82 inches Hg (1010.0 mb)
Winds: from the SSW (210 degrees) at 10 MPH (9 knots; 4.6 m/s)
Visibility: 6 or more miles (10+ km)
Ceiling: at least 12,000 feet AGL
Clouds: few clouds at 1500 feet AGL
scattered clouds at 2800 feet AGL
Weather: no significant weather observed at this time

METAR text: ROIG 210900Z 21012KT 9999 FEW016 26/23 Q1010
Conditions at: ROIG (ISHIGAKIJIMA ISL, JP) observed 0900 UTC 21 March 2019
Temperature: 26.0°C (79°F)
Dewpoint: 23.0°C (73°F) [RH = 84%]
Pressure (altimeter): 29.82 inches Hg (1010.0 mb)
Winds: from the SSW (210 degrees) at 14 MPH (12 knots; 6.2 m/s)
Visibility: 6 or more miles (10+ km)
Ceiling: at least 12,000 feet AGL
Clouds: few clouds at 1600 feet AGL
Weather: no significant weather observed at this time

METAR text: ROIG 210800Z 21014KT 9999 FEW017 SCT021 27/23 Q1010
Conditions at: ROIG (ISHIGAKIJIMA ISL, JP) observed 0800 UTC 21 March 2019
Temperature: 27.0°C (81°F)
Dewpoint: 23.0°C (73°F) [RH = 79%]
Pressure (altimeter): 29.82 inches Hg (1010.0 mb)
Winds: from the SSW (210 degrees) at 16 MPH (14 knots; 7.2 m/s)
Visibility: 6 or more miles (10+ km)
Ceiling: at least 12,000 feet AGL
Clouds: few clouds at 1700 feet AGL
scattered clouds at 2100 feet AGL
Weather: no significant weather observed at this time

METAR text: ROIG 210700Z 21015KT 9999 FEW017 28/23 Q1010
Conditions at: ROIG (ISHIGAKIJIMA ISL, JP) observed 0700 UTC 21 March 2019
Temperature: 28.0°C (82°F)
Dewpoint: 23.0°C (73°F) [RH = 74%]
Pressure (altimeter): 29.82 inches Hg (1010.0 mb)
Winds: from the SSW (210 degrees) at 17 MPH (15 knots; 7.7 m/s)
Visibility: 6 or more miles (10+ km)
Ceiling: at least 12,000 feet AGL
Clouds: few clouds at 1700 feet AGL
Weather: no significant weather observed at this time

METAR text: ROIG 210600Z 21015KT 9999 SCT015 SCT021 28/23 Q1010
Conditions at: ROIG (ISHIGAKIJIMA ISL, JP) observed 0600 UTC 21 March 2019
Temperature: 28.0°C (82°F)
Dewpoint: 23.0°C (73°F) [RH = 74%]
Pressure (altimeter): 29.82 inches Hg (1010.0 mb)
Winds: from the SSW (210 degrees) at 17 MPH (15 knots; 7.7 m/s)
Visibility: 6 or more miles (10+ km)
Ceiling: at least 12,000 feet AGL
Clouds: scattered clouds at 1500 feet AGL
scattered clouds at 2100 feet AGL
Weather: no significant weather observed at this time

METAR text: ROIG 210500Z 21019KT 9999 FEW017 28/23 Q1011
Conditions at: ROIG (ISHIGAKIJIMA ISL, JP) observed 0500 UTC 21 March 2019
Temperature: 28.0°C (82°F)
Dewpoint: 23.0°C (73°F) [RH = 74%]
Pressure (altimeter): 29.85 inches Hg (1011.0 mb)
Winds: from the SSW (210 degrees) at 22 MPH (19 knots; 9.8 m/s)
Visibility: 6 or more miles (10+ km)
Ceiling: at least 12,000 feet AGL
Clouds: few clouds at 1700 feet AGL
Weather: no significant weather observed at this time

METAR text: ROIG 210400Z 21016KT 9999 FEW014 28/24 Q1012
Conditions at: ROIG (ISHIGAKIJIMA ISL, JP) observed 0400 UTC 21 March 2019
Temperature: 28.0°C (82°F)
Dewpoint: 24.0°C (75°F) [RH = 79%]
Pressure (altimeter): 29.88 inches Hg (1012.0 mb)
Winds: from the SSW (210 degrees) at 18 MPH (16 knots; 8.2 m/s)
Visibility: 6 or more miles (10+ km)
Ceiling: at least 12,000 feet AGL
Clouds: few clouds at 1400 feet AGL
Weather: no significant weather observed at this time

METAR text: ROIG 210300Z 20017KT 9999 FEW014 28/23 Q1012
Conditions at: ROIG (ISHIGAKIJIMA ISL, JP) observed 0300 UTC 21 March 2019
Temperature: 28.0°C (82°F)
Dewpoint: 23.0°C (73°F) [RH = 74%]
Pressure (altimeter): 29.88 inches Hg (1012.0 mb)
Winds: from the SSW (200 degrees) at 20 MPH (17 knots; 8.7 m/s)
Visibility: 6 or more miles (10+ km)
Ceiling: at least 12,000 feet AGL
Clouds: few clouds at 1400 feet AGL
Weather: no significant weather observed at this time

METAR text: ROIG 210200Z 19015KT 9999 FEW012 28/23 Q1012
Conditions at: ROIG (ISHIGAKIJIMA ISL, JP) observed 0200 UTC 21 March 2019
Temperature: 28.0°C (82°F)
Dewpoint: 23.0°C (73°F) [RH = 74%]
Pressure (altimeter): 29.88 inches Hg (1012.0 mb)
Winds: from the S (190 degrees) at 17 MPH (15 knots; 7.7 m/s)
Visibility: 6 or more miles (10+ km)
Ceiling: at least 12,000 feet AGL
Clouds: few clouds at 1200 feet AGL
Weather: no significant weather observed at this time

METAR text: ROIG 210100Z 20015KT 9999 FEW015 27/23 Q1013
Conditions at: ROIG (ISHIGAKIJIMA ISL, JP) observed 0100 UTC 21 March 2019
Temperature: 27.0°C (81°F)
Dewpoint: 23.0°C (73°F) [RH = 79%]
Pressure (altimeter): 29.91 inches Hg (1013.0 mb)
Winds: from the SSW (200 degrees) at 17 MPH (15 knots; 7.7 m/s)
Visibility: 6 or more miles (10+ km)
Ceiling: at least 12,000 feet AGL
Clouds: few clouds at 1500 feet AGL
Weather: no significant weather observed at this time

METAR text: ROIG 210000Z 20013KT 9999 FEW010 26/23 Q1013
Conditions at: ROIG (ISHIGAKIJIMA ISL, JP) observed 0000 UTC 21 March 2019
Temperature: 26.0°C (79°F)
Dewpoint: 23.0°C (73°F) [RH = 84%]
Pressure (altimeter): 29.91 inches Hg (1013.0 mb)
Winds: from the SSW (200 degrees) at 15 MPH (13 knots; 6.7 m/s)
Visibility: 6 or more miles (10+ km)
Ceiling: at least 12,000 feet AGL
Clouds: few clouds at 1000 feet AGL
Weather: no significant weather observed at this time

Forecast for: ROIG (ISHIGAKIJIMA ISL, JP)
Text: TAF ROIG 221106Z 2212/2318 03014KT 9999 FEW010 BKN025
Forecast period: 1200 UTC 22 March 2019 to 1800 UTC 23 March 2019
Forecast type: FROM: standard forecast or significant change
Winds: from the NNE (30 degrees) at 16 MPH (14 knots; 7.2 m/s)
Visibility: 6 or more miles 10+ km)
Ceiling: 2500 feet AGL
Clouds: few clouds at 1000 feet AGL
broken clouds at 2500 feet AGL
Weather: no significant weather forecast for this period